Time;durP1;ratioP1;P1;durP2;ratioP2;P2;SDS_P1;SDS_P2;PMS_P1;PMS_P2;Temp;Humidity;BMP_temperature;BMP_pressure;BME280_temperature;BME280_humidity;BME280_pressure;Samples;Min_cycle;Max_cycle;Signal;HPM_P1;HPM_P2
2021/11/07 00:00:25;;;;;;;9.30;4.10;;;24.70;99.90;;;;;;5075342;28;20060;-64
2021/11/07 00:03:08;;;;;;;6.32;3.25;;;24.70;99.90;;;;;;5076244;28;20028;-65
2021/11/07 00:05:51;;;;;;;8.02;3.83;;;24.80;99.90;;;;;;5077220;28;20539;-66
2021/11/07 00:11:07;;;;;;;6.43;3.45;;;25.20;99.90;;;;;;5076631;28;20047;-66
2021/11/07 00:13:34;;;;;;;6.03;3.40;;;25.30;99.90;;;;;;5076636;28;20082;-66
2021/11/07 00:16:08;;;;;;;4.43;3.10;;;25.00;99.90;;;;;;5075858;28;20020;-66
2021/11/07 00:18:44;;;;;;;7.68;3.83;;;24.70;99.90;;;;;;5075990;28;20103;-65
2021/11/07 00:21:20;;;;;;;7.80;3.33;;;24.20;99.90;;;;;;5075413;28;20520;-66
2021/11/07 00:29:24;;;;;;;5.38;2.72;;;23.10;99.90;;;;;;5036850;28;20453;-68
2021/11/07 00:34:43;;;;;;;7.28;3.88;;;23.00;99.90;;;;;;5074596;28;20032;-67
2021/11/07 00:37:11;;;;;;;6.35;3.97;;;22.90;99.90;;;;;;5074006;28;20032;-64
2021/11/07 00:46:21;;;;;;;7.25;4.82;;;22.40;99.90;;;;;;5036000;28;20063;-66
2021/11/07 00:48:27;;;;;;;9.02;5.20;;;22.50;99.90;;;;;;5061439;28;20029;-64
2021/11/07 00:54:09;;;;;;;6.65;4.05;;;23.10;99.90;;;;;;5076117;28;20060;-72
2021/11/07 00:56:42;;;;;;;6.03;3.53;;;23.30;99.90;;;;;;5074838;28;20051;-64
2021/11/07 00:59:19;;;;;;;;;;;23.60;99.90;;;;;;5075746;28;20039;-63
2021/11/07 01:01:54;;;;;;;6.38;3.08;;;24.10;99.90;;;;;;5075178;28;19966;-70
2021/11/07 01:04:21;;;;;;;5.63;3.08;;;24.40;99.90;;;;;;5076229;28;20025;-65
2021/11/07 01:06:49;;;;;;;7.43;2.90;;;24.90;99.90;;;;;;5078827;28;20031;-66
2021/11/07 01:09:16;;;;;;;6.22;3.15;;;25.20;99.90;;;;;;5079004;28;20496;-71
2021/11/07 01:11:44;;;;;;;6.20;3.25;;;25.40;99.90;;;;;;5077435;28;20036;-71
2021/11/07 01:14:12;;;;;;;7.38;4.25;;;25.60;99.90;;;;;;5078432;28;20032;-66
2021/11/07 01:16:41;;;;;;;14.38;10.90;;;25.80;99.90;;;;;;5061821;28;20036;-67
2021/11/07 01:19:09;;;;;;;6.80;3.88;;;26.10;99.90;;;;;;5079669;28;20055;-65
2021/11/07 01:21:41;;;;;;;6.05;3.40;;;26.30;99.90;;;;;;5079036;28;20666;-66
2021/11/07 01:24:21;;;;;;;6.07;3.07;;;26.60;99.90;;;;;;5079655;28;20020;-66
2021/11/07 01:26:56;;;;;;;7.25;3.13;;;26.70;99.90;;;;;;5079393;28;20039;-69
2021/11/07 01:29:25;;;;;;;5.57;3.15;;;26.70;99.90;;;;;;5078739;28;20085;-65
2021/11/07 01:31:54;;;;;;;6.60;3.10;;;26.80;99.90;;;;;;5079140;28;20114;-64
2021/11/07 01:34:45;;;;;;;6.50;3.58;;;26.60;99.90;;;;;;5078916;28;20045;-66
2021/11/07 01:37:19;;;;;;;5.43;3.45;;;26.60;99.90;;;;;;5078035;28;20032;-69
2021/11/07 01:42:33;;;;;;;6.57;3.65;;;26.40;99.90;;;;;;5077804;28;20048;-64
2021/11/07 01:45:05;;;;;;;4.50;3.17;;;26.30;99.90;;;;;;5078826;28;20036;-69
2021/11/07 01:47:37;;;;;;;5.88;3.25;;;26.00;99.90;;;;;;5061966;28;20050;-65
2021/11/07 01:50:06;;;;;;;7.03;6.22;;;25.90;99.90;;;;;;5079128;28;20445;-70
2021/11/07 01:52:38;;;;;;;4.60;3.83;;;25.50;99.90;;;;;;5078814;28;20025;-70
2021/11/07 01:55:07;;;;;;;3.75;2.88;;;25.20;99.90;;;;;;5078962;28;20036;-65
2021/11/07 01:57:37;;;;;;;5.13;2.03;;;25.00;99.90;;;;;;5078699;28;20036;-70
2021/11/07 02:00:20;;;;;;;3.35;2.00;;;24.80;99.90;;;;;;5061718;28;20028;-69
2021/11/07 02:02:49;;;;;;;4.07;2.63;;;24.40;99.90;;;;;;5078111;28;20028;-67
2021/11/07 02:05:16;;;;;;;4.05;2.70;;;24.10;99.90;;;;;;5078633;28;20071;-66
2021/11/07 02:07:43;;;;;;;4.70;2.90;;;23.90;99.90;;;;;;5079046;28;20021;-66
2021/11/07 02:10:14;;;;;;;4.45;3.08;;;23.70;99.90;;;;;;5078567;28;20099;-69
2021/11/07 02:12:41;;;;;;;4.57;3.05;;;23.60;99.90;;;;;;5078590;28;20028;-69
2021/11/07 02:15:14;;;;;;;4.10;2.65;;;23.60;99.90;;;;;;5077732;28;20033;-68
2021/11/07 02:17:42;;;;;;;3.67;2.50;;;23.80;99.90;;;;;;5077108;28;20056;-69
2021/11/07 02:20:30;;;;;;;5.03;2.40;;;24.00;99.90;;;;;;5078908;28;20027;-69
2021/11/07 02:22:59;;;;;;;2.45;2.20;;;24.00;99.90;;;;;;5078527;28;20072;-68
2021/11/07 02:25:27;;;;;;;4.32;2.42;;;24.00;99.90;;;;;;5078418;28;20032;-69
2021/11/07 02:27:54;;;;;;;5.78;2.40;;;24.00;99.90;;;;;;5078737;28;20044;-67
2021/11/07 02:30:22;;;;;;;4.32;2.40;;;24.00;99.90;;;;;;5078544;28;20115;-67
2021/11/07 02:32:50;;;;;;;5.35;2.10;;;24.10;99.90;;;;;;5078864;28;20028;-69
2021/11/07 02:35:19;;;;;;;3.33;2.30;;;23.90;99.90;;;;;;5078017;28;20493;-67
2021/11/07 02:37:47;;;;;;;3.45;1.73;;;23.70;99.90;;;;;;5077665;28;20482;-67
2021/11/07 02:40:14;;;;;;;3.22;1.88;;;23.60;99.90;;;;;;5078071;28;20054;-67
2021/11/07 02:42:43;;;;;;;4.15;2.60;;;23.40;99.90;;;;;;5078667;28;20020;-68
2021/11/07 02:45:16;;;;;;;4.15;1.85;;;23.30;99.90;;;;;;5077649;28;20109;-69
2021/11/07 02:47:46;;;;;;;2.42;2.05;;;23.10;99.90;;;;;;5078264;28;20016;-69
2021/11/07 02:50:16;;;;;;;4.35;2.28;;;23.00;99.90;;;;;;5077638;28;20114;-71
2021/11/07 02:52:44;;;;;;;3.92;1.67;;;22.90;99.90;;;;;;5077946;28;20024;-67
2021/11/07 02:55:12;;;;;;;2.13;1.67;;;22.80;99.90;;;;;;5077815;28;20085;-67
2021/11/07 02:57:41;;;;;;;2.50;1.92;;;22.60;99.90;;;;;;5077953;28;20099;-68
2021/11/07 03:00:10;;;;;;;5.53;2.50;;;22.60;99.90;;;;;;5076364;28;20115;-69
2021/11/07 03:02:38;;;;;;;3.60;2.20;;;22.50;99.90;;;;;;5076721;28;20039;-65
2021/11/07 03:05:08;;;;;;;1.85;1.63;;;22.50;99.90;;;;;;5076319;28;20025;-69
2021/11/07 03:07:35;;;;;;;5.63;1.98;;;22.50;99.90;;;;;;5076111;28;20114;-67
2021/11/07 03:10:08;;;;;;;2.08;1.50;;;22.30;99.90;;;;;;5077137;28;20046;-68
2021/11/07 03:12:37;;;;;;;2.35;1.48;;;22.30;99.90;;;;;;5076144;28;20027;-67
2021/11/07 03:15:08;;;;;;;5.60;1.98;;;22.10;99.90;;;;;;5076529;28;20466;-68
2021/11/07 03:17:35;;;;;;;3.67;1.80;;;22.10;99.90;;;;;;5076368;28;20050;-70
2021/11/07 03:20:02;;;;;;;3.05;1.50;;;22.10;99.90;;;;;;5076113;28;20492;-69
2021/11/07 03:22:30;;;;;;;4.57;1.85;;;22.00;99.90;;;;;;5075502;28;20020;-68
2021/11/07 03:24:59;;;;;;;3.00;2.00;;;21.90;99.90;;;;;;5076869;28;20207;-67
2021/11/07 03:27:34;;;;;;;7.70;2.67;;;21.70;99.90;;;;;;5075802;28;20029;-67
2021/11/07 03:30:07;;;;;;;8.45;3.00;;;21.60;99.90;;;;;;5077025;28;20020;-64
2021/11/07 03:32:37;;;;;;;5.35;2.17;;;21.40;99.90;;;;;;5076013;28;20466;-65
2021/11/07 03:35:06;;;;;;;6.82;2.88;;;21.20;99.90;;;;;;5076751;28;20024;-66
2021/11/07 03:37:43;;;;;;;5.68;2.88;;;21.10;99.90;;;;;;5075601;28;20036;-67
2021/11/07 03:40:12;;;;;;;6.30;3.50;;;21.00;99.90;;;;;;5075380;28;20028;-66
2021/11/07 03:42:39;;;;;;;8.82;4.90;;;20.90;99.90;;;;;;5075307;28;20022;-65
2021/11/07 03:45:07;;;;;;;5.43;4.70;;;20.90;99.90;;;;;;5075974;28;20612;-66
2021/11/07 03:47:34;;;;;;;6.70;3.38;;;21.00;99.90;;;;;;5075562;28;20123;-72
2021/11/07 03:50:04;;;;;;;8.20;4.10;;;21.20;99.90;;;;;;5076556;28;20032;-65
2021/11/07 03:52:32;;;;;;;9.10;3.47;;;21.20;99.90;;;;;;5076118;28;20029;-75
2021/11/07 03:54:59;;;;;;;5.25;2.60;;;21.30;99.90;;;;;;4370625;28;10000768;-66
2021/11/07 03:57:26;;;;;;;3.67;2.30;;;21.20;99.90;;;;;;5072151;28;20033;-62
2021/11/07 03:59:53;;;;;;;4.20;2.13;;;21.20;99.90;;;;;;5071124;28;20028;-72
2021/11/07 04:02:20;;;;;;;3.65;2.30;;;21.20;99.90;;;;;;5069456;28;20025;-73
2021/11/07 04:04:47;;;;;;;4.95;2.42;;;21.10;99.90;;;;;;5072647;28;20551;-68
2021/11/07 04:07:14;;;;;;;4.93;2.75;;;21.20;99.90;;;;;;5072866;28;20636;-71
2021/11/07 04:09:41;;;;;;;4.07;2.78;;;21.20;99.90;;;;;;5072145;28;20021;-66
2021/11/07 04:12:09;;;;;;;4.45;2.38;;;21.30;99.90;;;;;;5072848;28;20497;-69
2021/11/07 04:14:36;;;;;;;6.10;3.03;;;21.40;99.90;;;;;;5073191;28;20050;-68
2021/11/07 04:17:06;;;;;;;4.95;3.15;;;21.50;99.90;;;;;;5072891;28;20137;-69
2021/11/07 04:19:35;;;;;;;8.60;3.20;;;21.50;99.90;;;;;;5072542;28;20505;-67
2021/11/07 04:22:04;;;;;;;4.38;2.47;;;21.60;99.90;;;;;;5073191;28;20446;-69
2021/11/07 04:24:32;;;;;;;4.80;2.95;;;21.80;99.90;;;;;;5055224;28;20032;-68
2021/11/07 04:27:00;;;;;;;4.63;3.25;;;21.70;99.90;;;;;;5073329;28;20024;-71
2021/11/07 04:29:27;;;;;;;4.78;3.58;;;21.80;99.90;;;;;;5072932;28;20055;-71
2021/11/07 04:31:54;;;;;;;4.35;3.22;;;21.80;99.90;;;;;;5073247;28;20083;-68
2021/11/07 04:34:22;;;;;;;3.92;2.45;;;21.60;99.90;;;;;;5073353;28;20035;-67
2021/11/07 04:36:49;;;;;;;4.93;2.45;;;21.50;99.90;;;;;;5057549;28;20037;-71
2021/11/07 04:39:16;;;;;;;5.07;3.00;;;21.50;99.90;;;;;;5072101;28;20028;-69
2021/11/07 04:41:43;;;;;;;5.63;3.42;;;21.50;99.90;;;;;;5073064;28;20020;-70
2021/11/07 04:44:10;;;;;;;3.42;2.67;;;21.40;99.90;;;;;;5072111;28;20024;-69
2021/11/07 04:46:38;;;;;;;8.23;3.17;;;21.40;99.90;;;;;;5072015;28;20161;-68
2021/11/07 04:49:05;;;;;;;5.93;2.90;;;21.30;99.90;;;;;;5071690;28;20500;-65
2021/11/07 04:51:33;;;;;;;5.65;3.42;;;21.30;99.90;;;;;;5072254;28;20623;-72
2021/11/07 04:54:00;;;;;;;4.43;3.83;;;21.30;99.90;;;;;;5070404;28;20075;-68
2021/11/07 04:56:27;;;;;;;4.00;3.53;;;21.30;99.90;;;;;;5071188;28;20378;-69
2021/11/07 04:58:54;;;;;;;6.07;4.10;;;21.20;99.90;;;;;;5071360;28;20032;-69
2021/11/07 05:01:22;;;;;;;5.47;4.15;;;21.20;99.90;;;;;;5070785;28;20036;-69
2021/11/07 05:03:49;;;;;;;5.50;5.00;;;21.30;99.90;;;;;;5071326;28;20023;-72
2021/11/07 05:06:16;;;;;;;6.72;4.50;;;21.30;99.90;;;;;;5070920;28;20424;-68
2021/11/07 05:08:43;;;;;;;3.85;2.55;;;21.30;99.90;;;;;;5071107;28;20364;-69
2021/11/07 05:11:10;;;;;;;4.25;3.05;;;21.30;99.90;;;;;;5071568;28;20109;-69
2021/11/07 05:13:37;;;;;;;3.53;2.40;;;21.50;99.90;;;;;;5071122;28;20024;-68
2021/11/07 05:16:05;;;;;;;2.70;2.45;;;21.40;99.90;;;;;;5056257;28;20502;-66
2021/11/07 05:18:32;;;;;;;3.72;1.83;;;21.50;99.90;;;;;;5071341;28;20024;-71
2021/11/07 05:20:59;;;;;;;3.72;1.67;;;21.40;99.90;;;;;;5074203;28;20162;-68
2021/11/07 05:23:26;;;;;;;4.15;1.52;;;21.50;99.90;;;;;;5074542;28;20087;-72
2021/11/07 05:25:54;;;;;;;4.10;1.63;;;21.50;99.90;;;;;;5073561;28;20542;-68
2021/11/07 05:28:21;;;;;;;4.65;3.28;;;21.50;99.90;;;;;;5074011;28;20056;-71
2021/11/07 05:30:48;;;;;;;2.47;1.80;;;21.60;99.90;;;;;;5071804;28;20407;-72
2021/11/07 05:33:16;;;;;;;8.75;1.90;;;21.70;99.90;;;;;;5072688;28;20166;-72
2021/11/07 05:35:44;;;;;;;6.00;1.70;;;21.50;99.90;;;;;;5073942;28;20039;-71
2021/11/07 05:38:11;;;;;;;9.50;6.72;;;21.50;99.90;;;;;;5075148;28;20083;-71
2021/11/07 05:40:38;;;;;;;5.70;3.55;;;21.60;99.90;;;;;;5072704;28;20024;-73
2021/11/07 05:43:06;;;;;;;3.92;3.10;;;21.60;99.90;;;;;;5072958;28;20072;-72
2021/11/07 05:45:33;;;;;;;4.88;3.55;;;21.50;99.90;;;;;;5071069;28;20025;-72
2021/11/07 05:48:00;;;;;;;8.00;6.57;;;21.40;99.90;;;;;;5072403;28;20496;-74
2021/11/07 05:50:28;;;;;;;7.10;4.97;;;21.30;99.90;;;;;;5073103;28;20027;-74
2021/11/07 05:52:55;;;;;;;5.47;3.08;;;21.30;99.90;;;;;;5058318;28;20336;-74
2021/11/07 05:55:22;;;;;;;4.25;3.00;;;21.40;99.90;;;;;;5074639;28;20044;-74
2021/11/07 05:57:49;;;;;;;4.50;3.42;;;21.30;99.90;;;;;;5076621;28;20355;-74
2021/11/07 06:00:19;;;;;;;9.18;4.97;;;21.30;99.90;;;;;;5076168;28;20024;-75
2021/11/07 06:02:48;;;;;;;10.73;5.90;;;21.10;99.90;;;;;;5059120;28;20025;-72
2021/11/07 06:05:16;;;;;;;6.07;3.45;;;21.00;99.90;;;;;;5075676;28;20390;-74
2021/11/07 06:07:44;;;;;;;4.45;3.22;;;21.10;99.90;;;;;;5076680;28;20111;-72
2021/11/07 06:10:12;;;;;;;5.10;1.98;;;21.20;99.90;;;;;;5076306;28;20028;-75
2021/11/07 06:12:39;;;;;;;2.65;2.22;;;21.30;99.90;;;;;;5074225;28;20063;-72
2021/11/07 06:15:08;;;;;;;2.97;2.38;;;21.30;99.90;;;;;;5075013;28;20522;-75
2021/11/07 06:17:35;;;;;;;2.55;1.85;;;21.30;99.90;;;;;;5073621;28;20332;-73
2021/11/07 06:20:04;;;;;;;3.58;2.80;;;21.30;99.90;;;;;;5073823;28;20036;-73
2021/11/07 06:22:31;;;;;;;6.20;5.60;;;21.30;99.90;;;;;;5072064;28;20016;-76
2021/11/07 06:24:58;;;;;;;7.40;4.10;;;21.30;99.90;;;;;;5055234;28;20028;-75
2021/11/07 06:27:28;;;;;;;8.23;5.55;;;21.30;99.90;;;;;;5073913;28;20449;-73
2021/11/07 06:29:55;;;;;;;6.82;3.40;;;21.20;99.90;;;;;;5073542;28;20024;-76
2021/11/07 06:32:22;;;;;;;9.45;3.35;;;21.20;99.90;;;;;;5073643;28;20024;-75
2021/11/07 06:34:50;;;;;;;3.83;2.20;;;21.20;99.90;;;;;;5073167;28;20129;-73
2021/11/07 06:37:17;;;;;;;4.63;2.80;;;21.00;99.90;;;;;;5073735;28;20051;-74
2021/11/07 06:39:44;;;;;;;5.43;2.08;;;21.10;99.90;;;;;;5074113;28;20218;-73
2021/11/07 06:42:12;;;;;;;4.47;1.90;;;21.20;99.90;;;;;;5072989;28;20505;-74
2021/11/07 06:44:39;;;;;;;5.80;2.40;;;21.30;99.90;;;;;;5071114;28;20481;-76
2021/11/07 06:47:08;;;;;;;4.05;2.22;;;21.20;99.90;;;;;;5073651;28;20063;-72
2021/11/07 06:49:36;;;;;;;5.80;1.95;;;21.20;99.90;;;;;;5073965;28;20028;-75
2021/11/07 06:52:04;;;;;;;3.65;1.73;;;21.10;99.90;;;;;;5056770;28;20188;-73
2021/11/07 06:54:32;;;;;;;2.55;1.50;;;21.10;99.90;;;;;;5095822;22;20243;-76
2021/11/07 06:56:59;;;;;;;3.30;1.50;;;21.20;99.90;;;;;;5062199;28;20024;-76
2021/11/07 06:59:27;;;;;;;3.60;1.80;;;21.10;99.90;;;;;;5062435;28;20033;-73
2021/11/07 07:01:54;;;;;;;2.88;1.60;;;21.40;99.90;;;;;;5062109;28;20038;-72
2021/11/07 07:04:21;;;;;;;3.75;1.92;;;21.60;99.90;;;;;;5061147;28;20031;-72
2021/11/07 07:06:51;;;;;;;3.42;1.60;;;21.60;99.90;;;;;;5044321;28;20062;-73
2021/11/07 07:09:25;;;;;;;5.10;1.98;;;21.50;99.90;;;;;;5063604;28;20036;-72
2021/11/07 07:12:07;;;;;;;3.55;1.83;;;21.50;99.90;;;;;;5063178;28;20035;-72
2021/11/07 07:14:49;;;;;;;4.07;2.03;;;21.50;99.90;;;;;;5063544;28;20116;-75
2021/11/07 07:20:26;;;;;;;5.28;2.47;;;21.30;99.90;;;;;;5061227;28;20592;-72
2021/11/07 07:36:14;;;;;;;5.80;3.35;;;21.10;99.90;;;;;;5062729;28;20025;-72
2021/11/07 07:38:41;;;;;;;6.93;2.80;;;21.20;99.90;;;;;;5063210;28;20028;-73
2021/11/07 07:41:08;;;;;;;3.13;2.13;;;21.20;99.90;;;;;;5063450;28;20021;-73
2021/11/07 07:43:35;;;;;;;3.50;2.30;;;21.10;99.90;;;;;;5063332;28;20024;-71
2021/11/07 07:46:06;;;;;;;3.83;2.47;;;21.20;99.90;;;;;;5063075;28;20016;-69
2021/11/07 07:48:44;;;;;;;3.58;2.50;;;21.10;99.90;;;;;;5063109;28;20084;-70
2021/11/07 07:51:14;;;;;;;5.70;2.20;;;21.00;99.90;;;;;;5063654;28;20027;-71
2021/11/07 07:53:43;;;;;;;3.65;2.20;;;21.00;99.90;;;;;;5062698;28;20407;-71
2021/11/07 07:56:11;;;;;;;4.15;2.00;;;21.00;99.90;;;;;;5063779;28;20020;-74
2021/11/07 07:58:38;;;;;;;3.95;2.28;;;21.00;99.90;;;;;;5063984;28;20640;-73
2021/11/07 08:01:07;;;;;;;4.15;2.38;;;20.90;99.90;;;;;;5063309;28;20063;-74
2021/11/07 08:03:34;;;;;;;4.78;2.30;;;20.80;99.90;;;;;;5046127;28;20398;-72
2021/11/07 08:06:01;;;;;;;2.90;2.00;;;20.70;99.90;;;;;;5063057;28;20039;-69
2021/11/07 08:08:28;;;;;;;6.25;2.05;;;20.60;99.90;;;;;;5063349;28;20060;-74
2021/11/07 08:10:55;;;;;;;5.15;2.67;;;20.70;99.90;;;;;;5062088;28;20024;-72
2021/11/07 08:13:22;;;;;;;2.80;1.98;;;20.80;99.90;;;;;;5062639;28;20586;-75
2021/11/07 08:15:49;;;;;;;4.38;2.13;;;20.80;99.90;;;;;;5063024;28;20039;-74
2021/11/07 08:18:16;;;;;;;5.70;2.55;;;20.80;99.90;;;;;;5060673;28;20031;-73
2021/11/07 08:20:46;;;;;;;5.63;2.97;;;20.70;99.90;;;;;;5060994;28;20176;-69
2021/11/07 08:23:13;;;;;;;5.72;2.95;;;20.60;99.90;;;;;;5058929;28;20836;-74
2021/11/07 08:25:41;;;;;;;3.53;2.70;;;20.50;99.90;;;;;;5061819;28;20078;-73
2021/11/07 08:28:09;;;;;;;4.32;2.78;;;20.30;99.90;;;;;;5059800;28;20036;-71
2021/11/07 08:30:41;;;;;;;6.18;2.70;;;20.50;99.90;;;;;;5060940;28;20074;-71
2021/11/07 08:33:09;;;;;;;7.10;3.00;;;20.50;99.90;;;;;;5061321;28;20083;-69
2021/11/07 08:35:41;;;;;;;5.90;2.65;;;20.30;99.90;;;;;;5060870;28;20029;-73
2021/11/07 08:38:12;;;;;;;5.13;2.93;;;20.30;99.90;;;;;;5060914;28;20053;-74
2021/11/07 08:40:49;;;;;;;5.68;3.17;;;20.20;99.90;;;;;;5061621;28;20028;-68
2021/11/07 09:05:05;;;;;;;5.95;3.30;;;20.10;99.90;;;;;;5057907;28;20377;-65
2021/11/07 09:10:04;;;;;;;7.53;3.38;;;19.90;99.90;;;;;;5056870;28;20033;-68
2021/11/07 09:12:32;;;;;;;7.18;3.35;;;19.80;99.90;;;;;;5058542;28;20028;-65
2021/11/07 09:14:59;;;;;;;5.93;3.22;;;19.60;99.90;;;;;;5057907;28;20097;-64
2021/11/07 09:17:27;;;;;;;5.95;3.67;;;19.60;99.90;;;;;;5058298;28;20227;-71
2021/11/07 09:19:56;;;;;;;3.17;2.70;;;19.50;99.90;;;;;;5056490;28;20127;-66
2021/11/07 09:22:33;;;;;;;5.00;3.08;;;19.40;99.90;;;;;;5055732;28;20036;-68
2021/11/07 09:25:07;;;;;;;8.90;3.78;;;19.50;99.90;;;;;;5057832;28;20371;-66
2021/11/07 09:27:42;;;;;;;5.03;3.30;;;19.30;99.90;;;;;;5061843;28;20076;-63
2021/11/07 09:30:15;;;;;;;4.35;3.08;;;19.30;99.90;;;;;;5061063;28;20028;-66
2021/11/07 09:33:00;;;;;;;8.93;3.42;;;19.20;99.90;;;;;;5061484;28;20475;-65
2021/11/07 09:35:36;;;;;;;5.93;3.60;;;19.10;99.90;;;;;;5062684;28;20036;-61
2021/11/07 09:41:09;;;;;;;4.70;2.40;;;19.10;99.90;;;;;;5064291;28;20494;-62
2021/11/07 09:43:41;;;;;;;2.92;2.33;;;19.10;99.90;;;;;;5063447;28;20032;-66
2021/11/07 09:48:39;;;;;;;4.07;1.85;;;18.90;99.90;;;;;;5062632;28;20829;-63
2021/11/07 09:51:15;;;;;;;22.60;17.25;;;18.80;99.90;;;;;;5063990;28;20028;-64
2021/11/07 09:53:47;;;;;;;4.15;3.17;;;18.70;99.90;;;;;;5062651;28;20060;-70
2021/11/07 09:56:14;;;;;;;6.18;1.92;;;18.60;99.90;;;;;;5063048;28;20119;-63
2021/11/07 09:58:45;;;;;;;4.60;1.63;;;18.70;99.90;;;;;;5063765;28;20471;-70
2021/11/07 10:01:13;;;;;;;2.58;1.60;;;18.60;99.90;;;;;;5063966;28;20020;-67
2021/11/07 10:03:42;;;;;;;4.15;1.77;;;18.60;99.90;;;;;;5063173;28;20030;-64
2021/11/07 10:06:50;;;;;;;4.03;2.15;;;18.70;99.90;;;;;;5063640;28;20115;-68
2021/11/07 10:09:39;;;;;;;4.15;1.90;;;18.60;99.90;;;;;;5060723;28;20546;-64
2021/11/07 10:12:18;;;;;;;4.18;1.95;;;18.40;99.90;;;;;;5060968;28;20048;-63
2021/11/07 10:14:57;;;;;;;4.03;2.05;;;18.30;99.90;;;;;;5060765;28;20074;-65
2021/11/07 10:17:32;;;;;;;5.22;3.40;;;18.20;99.90;;;;;;5060876;28;20300;-69
2021/11/07 10:22:43;;;;;;;7.10;3.47;;;18.20;99.90;;;;;;5058217;28;20159;-65
2021/11/07 10:25:16;;;;;;;3.97;1.75;;;18.20;99.90;;;;;;5060508;28;20027;-64
2021/11/07 10:27:47;;;;;;;2.83;1.67;;;18.20;99.90;;;;;;5060924;28;20115;-66
2021/11/07 10:30:19;;;;;;;3.90;2.00;;;18.00;99.90;;;;;;5060536;28;20508;-70
2021/11/07 10:32:59;;;;;;;3.10;2.22;;;18.00;99.90;;;;;;5059250;28;20024;-64
2021/11/07 10:54:41;;;;;;;9.45;5.28;;;18.60;99.90;;;;;;5059345;28;20067;-72
2021/11/07 10:57:28;;;;;;;6.25;5.03;;;18.60;99.90;;;;;;5059783;28;20027;-72
2021/11/07 11:00:16;;;;;;;8.15;5.82;;;18.60;99.90;;;;;;5058719;28;20440;-71
2021/11/07 11:02:50;;;;;;;9.30;5.82;;;18.60;99.90;;;;;;5057487;28;20021;-68
2021/11/07 11:05:25;;;;;;;5.90;5.30;;;18.60;99.90;;;;;;5057640;28;20372;-71
2021/11/07 11:07:59;;;;;;;7.22;4.88;;;18.60;99.90;;;;;;5058803;28;20104;-68
2021/11/07 11:10:34;;;;;;;6.32;5.72;;;18.60;99.90;;;;;;5059054;28;20020;-71
2021/11/07 11:13:13;;;;;;;9.85;6.22;;;18.70;99.90;;;;;;5059630;28;20040;-71
2021/11/07 11:16:20;;;;;;;7.50;6.28;;;18.70;99.90;;;;;;5059842;28;20029;-70
2021/11/07 11:25:06;;;;;;;7.88;5.82;;;18.70;99.90;;;;;;5036903;28;20268;-72
2021/11/07 11:33:43;;;;;;;10.02;6.20;;;18.60;99.90;;;;;;5059867;28;20019;-70
2021/11/07 11:38:19;;;;;;;10.52;6.45;;;18.60;99.90;;;;;;5059095;28;20025;-71
2021/11/07 11:40:57;;;;;;;8.07;7.28;;;18.50;99.90;;;;;;5060704;28;20028;-70
2021/11/07 11:43:34;;;;;;;8.68;6.53;;;18.50;99.90;;;;;;5062552;28;20023;-68
2021/11/07 11:46:20;;;;;;;9.82;7.22;;;18.50;99.90;;;;;;5061723;28;20124;-69
2021/11/07 11:51:46;;;;;;;9.63;8.05;;;18.50;99.90;;;;;;5062140;28;20031;-70
2021/11/07 11:57:16;;;;;;;9.00;6.63;;;18.70;99.90;;;;;;5061253;28;20471;-69
2021/11/07 12:02:37;;;;;;;8.40;5.50;;;18.80;99.90;;;;;;5061977;28;20035;-68
2021/11/07 12:05:38;;;;;;;5.05;3.65;;;18.80;99.90;;;;;;5061745;28;20459;-66
2021/11/07 12:08:10;;;;;;;5.95;3.65;;;18.90;99.90;;;;;;5060336;28;20048;-69
2021/11/07 12:13:28;;;;;;;5.60;3.85;;;18.70;99.90;;;;;;5061341;28;20905;-71
2021/11/07 12:16:00;;;;;;;5.10;3.13;;;18.60;99.90;;;;;;5061465;28;20036;-69
2021/11/07 12:18:29;;;;;;;5.13;3.40;;;18.60;99.90;;;;;;5061955;28;20028;-70
2021/11/07 12:20:57;;;;;;;8.68;3.22;;;18.70;99.90;;;;;;5043500;28;20036;-70
2021/11/07 12:23:33;;;;;;;5.63;3.17;;;18.70;99.90;;;;;;5060721;28;20039;-68
2021/11/07 12:26:26;;;;;;;5.00;2.75;;;18.70;99.90;;;;;;5061612;28;20131;-66
2021/11/07 12:28:54;;;;;;;5.28;3.53;;;18.60;99.90;;;;;;5061874;28;20525;-70
2021/11/07 12:31:22;;;;;;;4.97;2.88;;;18.60;99.90;;;;;;5061368;28;20069;-70
2021/11/07 12:33:56;;;;;;;5.50;2.97;;;18.60;99.90;;;;;;5061499;28;20028;-67
2021/11/07 12:42:17;;;;;;;4.47;3.08;;;18.60;99.90;;;;;;5061264;28;20036;-67
2021/11/07 12:44:49;;;;;;;6.55;3.30;;;18.70;99.90;;;;;;5062075;28;20096;-68
2021/11/07 12:47:17;;;;;;;6.05;3.13;;;18.60;99.90;;;;;;5060703;28;20021;-71
2021/11/07 12:49:57;;;;;;;6.97;3.60;;;18.60;99.90;;;;;;5060021;28;20029;-68
2021/11/07 12:52:24;;;;;;;7.05;3.20;;;18.50;99.90;;;;;;5061440;28;20114;-71
2021/11/07 12:54:51;;;;;;;7.90;3.72;;;18.50;99.90;;;;;;5061415;28;21141;-68
2021/11/07 12:57:20;;;;;;;8.20;3.72;;;18.50;99.90;;;;;;5064117;28;20028;-69
2021/11/07 12:59:53;;;;;;;5.28;3.03;;;18.50;99.90;;;;;;5063825;28;20037;-66
2021/11/07 13:02:22;;;;;;;;;;;18.40;99.90;;;;;;5068819;28;20032;-66
2021/11/07 13:04:55;;;;;;;11.10;4.22;;;18.30;99.90;;;;;;5067611;28;19936;-67
2021/11/07 13:07:26;;;;;;;6.70;3.35;;;18.30;99.90;;;;;;5067925;28;20032;-69
2021/11/07 13:09:59;;;;;;;5.45;3.13;;;18.30;99.90;;;;;;5068021;28;20030;-67
2021/11/07 13:12:33;;;;;;;;;;;18.20;99.90;;;;;;5068452;28;20687;-66
2021/11/07 13:18:20;;;;;;;9.98;3.80;;;18.20;99.90;;;;;;5067860;28;20040;-70
2021/11/07 13:42:36;;;;;;;22.50;5.18;;;17.90;99.90;;;;;;5066356;28;20105;-69
2021/11/07 13:45:06;;;;;;;16.13;4.97;;;18.00;99.90;;;;;;5064042;28;20119;-66
2021/11/07 13:47:44;;;;;;;14.02;4.82;;;18.00;99.90;;;;;;5049843;28;20116;-66
2021/11/07 13:50:15;;;;;;;12.50;5.63;;;17.90;99.90;;;;;;5067242;28;20036;-70
2021/11/07 13:52:43;;;;;;;14.48;5.18;;;18.00;99.90;;;;;;5067632;28;20139;-68
2021/11/07 13:55:33;;;;;;;5.70;4.50;;;18.00;99.90;;;;;;5067450;28;20257;-70
2021/11/07 13:58:20;;;;;;;5.35;4.85;;;18.00;99.90;;;;;;5066504;28;20584;-70
2021/11/07 14:00:49;;;;;;;6.57;5.82;;;18.00;99.90;;;;;;5067062;28;20024;-66
2021/11/07 14:03:18;;;;;;;8.93;5.32;;;18.00;99.90;;;;;;5067349;28;20509;-70
2021/11/07 14:06:18;;;;;;;7.40;5.35;;;18.10;99.90;;;;;;5067108;28;20065;-70
2021/11/07 14:09:02;;;;;;;7.40;5.35;;;18.00;99.90;;;;;;5061814;28;20055;-70
2021/11/07 14:11:30;;;;;;;9.10;5.60;;;18.00;99.90;;;;;;5066979;28;20035;-70
2021/11/07 14:14:03;;;;;;;11.30;5.78;;;17.90;99.90;;;;;;5066829;28;20115;-67
2021/11/07 14:16:31;;;;;;;;;;;17.90;99.90;;;;;;5067640;28;20028;-70
2021/11/07 14:19:00;;;;;;;7.75;5.80;;;17.90;99.90;;;;;;5067606;28;19920;-70
2021/11/07 14:21:30;;;;;;;8.23;6.30;;;17.90;99.90;;;;;;5065188;28;20052;-70
2021/11/07 14:26:40;;;;;;;6.75;6.03;;;17.80;99.90;;;;;;5066939;28;20403;-70
2021/11/07 14:40:17;;;;;;;10.20;8.98;;;17.90;99.90;;;;;;5066848;28;20039;-70
2021/11/07 14:43:11;;;;;;;13.57;10.18;;;18.00;99.90;;;;;;5048903;28;20042;-70
2021/11/07 14:54:20;;;;;;;11.80;10.13;;;17.90;99.90;;;;;;5066886;28;20495;-67
2021/11/07 15:02:33;;;;;;;10.95;9.85;;;17.90;99.90;;;;;;5066105;28;20055;-69
2021/11/07 15:05:08;;;;;;;14.15;10.20;;;17.90;99.90;;;;;;5066217;28;20025;-70
2021/11/07 15:07:45;;;;;;;12.15;9.50;;;17.80;99.90;;;;;;5066064;28;20024;-71
2021/11/07 15:19:11;;;;;;;11.40;8.77;;;17.60;99.90;;;;;;5065981;28;21038;-66
2021/11/07 15:24:14;;;;;;;11.95;10.38;;;17.50;99.90;;;;;;5065325;28;20101;-70
2021/11/07 15:26:48;;;;;;;21.98;11.75;;;17.50;99.90;;;;;;5065465;28;20085;-66
2021/11/07 15:29:22;;;;;;;15.05;10.10;;;17.50;99.90;;;;;;5065442;28;20024;-71
2021/11/07 15:32:00;;;;;;;15.23;11.90;;;17.50;99.90;;;;;;5065899;28;20028;-67
2021/11/07 15:34:32;;;;;;;14.20;11.65;;;17.50;99.90;;;;;;5066145;28;20104;-68
2021/11/07 15:36:59;;;;;;;13.23;11.77;;;17.50;99.90;;;;;;5065944;28;20020;-67
2021/11/07 15:39:27;;;;;;;14.13;10.57;;;17.60;99.90;;;;;;5065216;28;20487;-69
2021/11/07 15:42:08;;;;;;;10.85;9.75;;;17.60;99.90;;;;;;5065411;28;20033;-70
2021/11/07 15:44:52;;;;;;;13.45;10.20;;;17.60;99.90;;;;;;5064815;28;20505;-68
2021/11/07 15:58:20;;;;;;;12.32;9.40;;;17.50;99.90;;;;;;5065571;28;20021;-69
2021/11/07 16:16:44;;;;;;;15.82;10.25;;;17.50;99.90;;;;;;5064384;28;20403;-70
2021/11/07 16:19:14;;;;;;;13.07;11.38;;;17.50;99.90;;;;;;5065162;28;20031;-68
2021/11/07 16:21:50;;;;;;;12.20;9.57;;;17.60;99.90;;;;;;5044889;28;20054;-70
2021/11/07 16:24:20;;;;;;;10.88;9.70;;;17.60;99.90;;;;;;5064514;28;20021;-66
2021/11/07 16:26:52;;;;;;;17.00;12.90;;;17.50;99.90;;;;;;5064600;28;20021;-69
2021/11/07 16:29:26;;;;;;;15.10;12.02;;;17.50;99.90;;;;;;5064334;28;20020;-67
2021/11/07 16:34:48;;;;;;;26.55;18.73;;;17.60;99.90;;;;;;5064380;28;20117;-69
2021/11/07 16:37:22;;;;;;;26.73;19.48;;;17.60;99.90;;;;;;5064257;28;20037;-72
2021/11/07 16:40:03;;;;;;;31.73;21.75;;;17.50;99.90;;;;;;5064665;28;20460;-68
2021/11/07 16:42:31;;;;;;;37.97;24.23;;;17.60;99.90;;;;;;5064850;28;20028;-72